createdAt,value
2023-05-17T00:02:01.109Z,2.67
2023-05-17T00:05:03.314Z,2.60
2023-05-17T00:08:05.372Z,2.28
2023-05-17T00:11:07.314Z,2.20
2023-05-17T00:14:08.909Z,2.03
2023-05-17T00:17:10.563Z,2.10
2023-05-17T00:20:12.486Z,2.25
2023-05-17T00:23:14.054Z,2.17
2023-05-17T00:26:15.637Z,2.10
2023-05-17T00:29:17.554Z,2.42
2023-05-17T00:32:19.133Z,2.28
2023-05-17T00:35:20.776Z,2.10
2023-05-17T00:38:22.394Z,2.00
2023-05-17T00:41:23.980Z,2.17
2023-05-17T00:44:25.660Z,2.67
2023-05-17T00:47:27.332Z,2.25
2023-05-17T00:50:29.352Z,3.03
2023-05-17T00:53:31.087Z,2.45
2023-05-17T00:56:33.146Z,2.60
2023-05-17T00:59:37.481Z,2.40
2023-05-17T01:02:39.102Z,2.25
2023-05-17T01:05:40.813Z,2.22
2023-05-17T01:08:43.508Z,2.65
2023-05-17T01:12:01.996Z,2.40
2023-05-17T01:15:21.956Z,2.47
2023-05-17T01:18:41.595Z,2.05
2023-05-17T01:21:49.178Z,2.67
2023-05-17T01:25:24.919Z,2.30
2023-05-17T01:28:27.489Z,2.40
2023-05-17T01:31:29.271Z,2.20
2023-05-17T01:34:31.027Z,2.15
2023-05-17T01:37:32.689Z,2.33
2023-05-17T01:40:36.956Z,1.95
2023-05-17T01:43:44.273Z,2.30
2023-05-17T01:46:47.954Z,2.08
2023-05-17T01:49:54.039Z,2.22
2023-05-17T01:53:01.775Z,2.05
2023-05-17T01:56:07.777Z,2.17
2023-05-17T01:59:11.230Z,2.17
2023-05-17T02:02:13.973Z,1.95
2023-05-17T02:05:15.722Z,2.03
2023-05-17T02:08:17.902Z,2.33
2023-05-17T02:11:19.531Z,2.40
2023-05-17T02:14:21.175Z,2.30
2023-05-17T02:17:23.028Z,2.45
2023-05-17T02:20:24.894Z,2.45
2023-05-17T02:23:27.281Z,2.47
2023-05-17T02:26:28.923Z,2.30
2023-05-17T02:29:30.932Z,2.00
2023-05-17T02:32:33.807Z,2.10
2023-05-17T02:35:35.566Z,1.80
2023-05-17T02:38:37.108Z,2.30
2023-05-17T02:41:38.656Z,2.70
2023-05-17T02:44:40.277Z,2.78
2023-05-17T02:47:42.748Z,2.33
2023-05-17T02:50:45.100Z,2.83
2023-05-17T02:53:46.748Z,2.35
2023-05-17T02:56:48.382Z,2.28
2023-05-17T02:59:51.201Z,2.60
2023-05-17T03:02:52.949Z,2.38
2023-05-17T03:05:54.589Z,2.00
2023-05-17T03:08:57.194Z,2.70
2023-05-17T03:11:59.090Z,2.67
2023-05-17T03:18:07.812Z,2.10
2023-05-17T03:21:11.575Z,1.90
2023-05-17T03:24:13.937Z,1.67
2023-05-17T03:27:16.830Z,1.98
2023-05-17T03:30:18.749Z,1.90
2023-05-17T03:33:21.391Z,2.50
2023-05-17T03:36:23.321Z,2.30
2023-05-17T03:39:24.921Z,2.60
2023-05-17T03:42:27.210Z,2.22
2023-05-17T03:45:28.954Z,2.22
2023-05-17T03:48:31.164Z,2.22
2023-05-17T03:51:33.811Z,2.63
2023-05-17T03:54:35.865Z,2.38
2023-05-17T03:57:37.565Z,2.10
2023-05-17T04:00:39.278Z,2.50
2023-05-17T04:03:47.769Z,2.20
2023-05-17T04:06:49.608Z,2.15
2023-05-17T04:09:52.099Z,2.55
2023-05-17T04:12:53.912Z,2.22
2023-05-17T04:15:55.556Z,2.10
2023-05-17T04:18:57.681Z,2.75
2023-05-17T04:21:59.447Z,2.60
2023-05-17T04:25:02.291Z,2.40
2023-05-17T04:28:04.480Z,2.70
2023-05-17T04:31:10.167Z,2.50
2023-05-17T04:34:14.064Z,2.38
2023-05-17T04:37:16.923Z,2.45
2023-05-17T04:40:20.456Z,2.20
2023-05-17T04:43:22.989Z,2.00
2023-05-17T04:46:24.615Z,2.15
2023-05-17T04:49:26.720Z,2.70
2023-05-17T04:52:29.414Z,2.45
2023-05-17T04:55:31.108Z,1.85
2023-05-17T04:58:33.590Z,1.92
2023-05-17T05:01:37.024Z,2.08
2023-05-17T05:04:39.923Z,1.90
2023-05-17T05:07:43.069Z,2.30
2023-05-17T05:10:46.099Z,2.25
2023-05-17T05:13:49.819Z,2.13
2023-05-17T05:16:51.815Z,2.03
2023-05-17T05:19:53.560Z,2.25
2023-05-17T05:22:57.389Z,2.35
2023-05-17T05:25:59.249Z,2.85
2023-05-17T05:29:01.839Z,2.40
2023-05-17T05:32:06.272Z,2.50
2023-05-17T05:35:13.487Z,2.53
2023-05-17T05:38:15.217Z,2.08
2023-05-17T05:41:16.968Z,4.70
2023-05-17T05:44:18.913Z,3.10
2023-05-17T05:47:20.819Z,3.10
2023-05-17T05:50:23.160Z,3.53
2023-05-17T05:53:38.185Z,3.60
2023-05-17T05:56:40.549Z,3.20
2023-05-17T05:59:46.558Z,2.80
2023-05-17T06:02:51.855Z,2.65
2023-05-17T06:05:56.521Z,2.75
2023-05-17T06:09:00.187Z,2.90
2023-05-17T06:12:04.030Z,2.75
2023-05-17T06:15:10.200Z,2.60
2023-05-17T06:18:11.866Z,2.58
2023-05-17T06:21:16.145Z,2.67
2023-05-17T06:24:18.143Z,2.45
2023-05-17T06:27:19.762Z,2.55
2023-05-17T06:30:21.419Z,2.40
2023-05-17T06:33:26.431Z,2.58
2023-05-17T06:36:28.261Z,2.80
2023-05-17T06:39:32.013Z,2.33
2023-05-17T06:42:33.835Z,2.50
2023-05-17T06:45:41.956Z,2.30
2023-05-17T06:48:43.687Z,3.03
2023-05-17T06:51:45.389Z,2.90
2023-05-17T06:54:47.035Z,3.10
2023-05-17T06:57:48.780Z,2.60
2023-05-17T07:00:50.373Z,2.67
2023-05-17T07:03:52.054Z,2.55
2023-05-17T07:06:55.218Z,2.38
2023-05-17T07:09:56.790Z,2.60
2023-05-17T07:12:58.950Z,2.70
2023-05-17T07:16:10.035Z,2.63
2023-05-17T07:19:12.356Z,2.80
2023-05-17T07:22:20.580Z,2.47
2023-05-17T07:25:22.163Z,2.70
2023-05-17T07:28:26.876Z,2.15
2023-05-17T07:31:31.611Z,2.35
2023-05-17T07:34:39.458Z,2.28
2023-05-17T07:37:43.347Z,2.47
2023-05-17T07:40:44.968Z,2.22
2023-05-17T07:43:48.860Z,2.30
2023-05-17T07:46:50.436Z,2.70
2023-05-17T07:49:52.054Z,2.13
2023-05-17T07:52:53.784Z,2.17
2023-05-17T07:55:57.532Z,2.05
2023-05-17T07:59:09.559Z,2.30
2023-05-17T08:05:27.477Z,2.53
2023-05-17T08:08:29.326Z,2.53
2023-05-17T08:11:35.326Z,2.50
2023-05-17T08:17:55.641Z,2.45
2023-05-17T08:20:58.570Z,2.42
2023-05-17T08:24:06.383Z,2.30
2023-05-17T08:27:07.979Z,2.53
2023-05-17T08:33:30.501Z,2.47
2023-05-17T08:36:35.324Z,2.60
2023-05-17T08:39:44.656Z,2.70
2023-05-17T08:42:46.515Z,2.13
2023-05-17T08:49:06.798Z,2.30
2023-05-17T08:52:11.656Z,2.25
2023-05-17T08:55:16.475Z,2.47
2023-05-17T08:58:24.664Z,2.22
2023-05-17T09:01:27.870Z,2.58
2023-05-17T09:04:31.390Z,2.45
2023-05-17T09:07:33.150Z,2.70
2023-05-17T09:13:53.351Z,2.40
2023-05-17T09:17:01.331Z,2.55
2023-05-17T09:20:03.059Z,2.20
2023-05-17T09:23:05.767Z,2.30
2023-05-17T09:26:13.896Z,2.25
2023-05-17T09:29:16.967Z,2.15
2023-05-17T09:32:28.601Z,2.60
2023-05-17T09:35:31.635Z,2.28
2023-05-17T09:38:39.362Z,2.53
2023-05-17T09:41:43.629Z,2.28
2023-05-17T09:44:50.123Z,2.40
2023-05-17T09:47:52.498Z,2.10
2023-05-17T09:50:54.405Z,2.63
2023-05-17T09:53:58.211Z,2.30
2023-05-17T09:57:14.875Z,2.10
2023-05-17T10:03:27.224Z,2.30
2023-05-17T10:06:44.741Z,2.47
2023-05-17T10:09:55.974Z,2.65
2023-05-17T10:13:00.985Z,2.63
2023-05-17T10:16:03.806Z,2.42
2023-05-17T10:19:05.839Z,2.53
2023-05-17T10:22:21.769Z,2.63
2023-05-17T10:25:28.214Z,2.28
2023-05-17T10:28:30.367Z,2.33
2023-05-17T10:31:33.796Z,2.80
2023-05-17T10:34:38.327Z,2.63
2023-05-17T10:37:45.029Z,2.58
2023-05-17T10:40:49.051Z,2.50
2023-05-17T10:44:05.119Z,2.35
2023-05-17T10:47:08.797Z,2.50
2023-05-17T10:50:24.723Z,2.78
2023-05-17T10:53:26.283Z,2.70
2023-05-17T10:56:28.332Z,2.58
2023-05-17T10:59:32.049Z,2.67
2023-05-17T11:02:42.605Z,2.60
2023-05-17T11:06:24.456Z,2.70
2023-05-17T11:09:32.313Z,2.65
2023-05-17T11:12:45.912Z,2.50
2023-05-17T11:16:05.315Z,2.50
2023-05-17T11:19:09.212Z,2.55
2023-05-17T11:22:12.286Z,2.60
2023-05-17T11:25:14.623Z,2.70
2023-05-17T11:28:21.423Z,2.80
2023-05-17T11:31:31.040Z,2.95
2023-05-17T11:34:35.966Z,2.85
2023-05-17T11:37:37.600Z,3.00
2023-05-17T11:40:43.001Z,2.80
2023-05-17T11:43:49.298Z,3.03
2023-05-17T11:47:10.098Z,3.42
2023-05-17T11:50:14.654Z,3.15
2023-05-17T11:53:16.336Z,2.95
2023-05-17T11:56:19.306Z,3.13
2023-05-17T11:59:23.004Z,3.00
2023-05-17T12:02:32.844Z,3.08
2023-05-17T12:05:34.599Z,8.93
2023-05-17T12:08:38.893Z,15.18
2023-05-17T12:11:41.641Z,89.00
2023-05-17T12:14:44.888Z,68.55
2023-05-17T12:21:14.600Z,23.00
2023-05-17T12:24:16.601Z,12.45
2023-05-17T12:27:26.022Z,7.90
2023-05-17T12:30:36.825Z,6.88
2023-05-17T12:33:41.608Z,28.92
2023-05-17T12:36:43.854Z,6.97
2023-05-17T12:39:45.978Z,4.50
2023-05-17T12:43:06.242Z,3.80
2023-05-17T12:46:11.719Z,3.30
2023-05-17T12:49:13.507Z,3.45
2023-05-17T12:52:18.021Z,3.10
2023-05-17T12:55:21.707Z,3.20
2023-05-17T12:58:23.377Z,2.85
2023-05-17T13:01:25.009Z,2.75
2023-05-17T13:04:31.994Z,2.88
2023-05-17T13:07:47.256Z,2.90
2023-05-17T13:10:48.844Z,2.67
2023-05-17T13:13:50.830Z,2.47
2023-05-17T13:16:52.530Z,2.65
2023-05-17T13:19:57.513Z,2.22
2023-05-17T13:23:01.696Z,2.70
2023-05-17T13:26:03.276Z,2.35
2023-05-17T13:29:05.709Z,2.72
2023-05-17T13:32:09.362Z,2.70
2023-05-17T13:35:11.363Z,2.70
2023-05-17T13:38:20.203Z,3.38
2023-05-17T13:41:23.883Z,2.90
2023-05-17T13:44:25.856Z,2.70
2023-05-17T13:47:29.935Z,2.53
2023-05-17T13:50:34.920Z,2.75
2023-05-17T13:53:38.732Z,2.70
2023-05-17T13:56:45.509Z,2.80
2023-05-17T13:59:47.921Z,2.65
2023-05-17T14:02:49.832Z,2.88
2023-05-17T14:05:57.739Z,2.58
2023-05-17T14:09:00.812Z,2.53
2023-05-17T14:12:05.784Z,2.70
2023-05-17T14:15:09.038Z,2.90
2023-05-17T14:18:22.881Z,2.70
2023-05-17T14:21:27.529Z,2.47
2023-05-17T14:24:29.231Z,2.80
2023-05-17T14:27:37.347Z,2.75
2023-05-17T14:30:39.811Z,2.60
2023-05-17T14:33:43.571Z,2.80
2023-05-17T14:36:45.243Z,2.50
2023-05-17T14:39:58.466Z,2.78
2023-05-17T14:43:07.407Z,2.50
2023-05-17T14:49:27.613Z,2.67
2023-05-17T14:52:30.601Z,2.80
2023-05-17T14:55:42.385Z,2.53
2023-05-17T14:58:44.843Z,2.63
2023-05-17T15:01:52.762Z,2.97
2023-05-17T15:05:27.138Z,2.92
2023-05-17T15:08:41.150Z,2.90
2023-05-17T15:11:50.349Z,2.60
2023-05-17T15:14:52.364Z,2.53
2023-05-17T15:17:54.190Z,2.70
2023-05-17T15:20:56.147Z,2.70
2023-05-17T15:23:57.984Z,2.53
2023-05-17T15:26:59.588Z,2.70
2023-05-17T15:30:01.228Z,2.47
2023-05-17T15:33:09.427Z,2.60
2023-05-17T15:36:13.783Z,2.80
2023-05-17T15:39:15.431Z,2.70
2023-05-17T15:42:17.247Z,2.55
2023-05-17T15:45:21.265Z,2.80
2023-05-17T15:48:25.937Z,2.58
2023-05-17T15:51:27.669Z,2.45
2023-05-17T15:54:32.326Z,2.90
2023-05-17T15:57:36.977Z,2.80
2023-05-17T16:00:40.962Z,2.75
2023-05-17T16:03:42.592Z,2.50
2023-05-17T16:06:46.607Z,2.35
2023-05-17T16:09:48.296Z,2.85
2023-05-17T16:12:50.313Z,2.85
2023-05-17T16:16:04.531Z,2.47
2023-05-17T16:19:09.194Z,2.50
2023-05-17T16:22:16.882Z,2.33
2023-05-17T16:25:19.593Z,4.00
2023-05-17T16:28:27.422Z,2.53
2023-05-17T16:31:29.989Z,2.40
2023-05-17T16:34:35.112Z,2.22
2023-05-17T16:37:39.309Z,2.50
2023-05-17T16:40:43.975Z,2.38
2023-05-17T16:43:45.791Z,2.55
2023-05-17T16:46:49.593Z,2.22
2023-05-17T16:53:20.814Z,2.22
2023-05-17T16:56:50.233Z,2.90
2023-05-17T16:59:52.044Z,2.25
2023-05-17T17:02:56.507Z,2.50
2023-05-17T17:05:58.152Z,2.28
2023-05-17T17:09:07.724Z,2.60
2023-05-17T17:12:24.163Z,2.50
2023-05-17T17:15:27.545Z,2.70
2023-05-17T17:18:29.377Z,3.67
2023-05-17T17:21:36.321Z,4.07
2023-05-17T17:24:41.056Z,2.75
2023-05-17T17:27:46.931Z,2.47
2023-05-17T17:30:58.498Z,2.80
2023-05-17T17:34:01.067Z,2.30
2023-05-17T17:37:06.012Z,2.50
2023-05-17T17:40:08.253Z,2.60
2023-05-17T17:43:15.152Z,2.72
2023-05-17T17:46:24.253Z,2.83
2023-05-17T17:49:25.871Z,2.78
2023-05-17T17:52:27.465Z,3.00
2023-05-17T17:55:29.024Z,3.00
2023-05-17T17:58:31.246Z,2.85
2023-05-17T18:01:52.443Z,2.72
2023-05-17T18:04:55.216Z,4.07
2023-05-17T18:07:56.918Z,3.65
2023-05-17T18:10:59.120Z,2.90
2023-05-17T18:14:02.359Z,2.50
2023-05-17T18:17:04.270Z,2.70
2023-05-17T18:20:06.819Z,2.72
2023-05-17T18:26:27.109Z,2.88
2023-05-17T18:29:37.518Z,2.78
2023-05-17T18:32:45.255Z,2.40
2023-05-17T18:35:47.577Z,2.17
2023-05-17T18:42:05.765Z,2.22
2023-05-17T18:45:16.198Z,2.50
2023-05-17T18:48:18.022Z,2.38
2023-05-17T18:51:19.686Z,2.53
2023-05-17T18:54:23.390Z,3.42
2023-05-17T18:57:29.582Z,2.80
2023-05-17T19:00:31.498Z,2.72
2023-05-17T19:03:33.315Z,2.75
2023-05-17T19:06:35.310Z,2.50
2023-05-17T19:09:36.903Z,2.92
2023-05-17T19:12:38.591Z,2.85
2023-05-17T19:15:46.580Z,2.78
2023-05-17T19:18:48.244Z,2.35
2023-05-17T19:21:52.044Z,2.40
2023-05-17T19:24:56.556Z,2.40
2023-05-17T19:28:00.588Z,2.63
2023-05-17T19:31:03.245Z,2.70
2023-05-17T19:34:04.845Z,2.78
2023-05-17T19:37:07.289Z,2.92
2023-05-17T19:40:12.470Z,2.97
2023-05-17T19:43:15.427Z,2.83
2023-05-17T19:46:17.079Z,2.83
2023-05-17T19:49:18.842Z,2.75
2023-05-17T19:52:20.644Z,2.97
2023-05-17T19:55:23.521Z,2.85
2023-05-17T19:58:37.486Z,2.70
2023-05-17T20:01:46.364Z,2.92
2023-05-17T20:04:48.362Z,2.70
2023-05-17T20:07:56.433Z,3.05
2023-05-17T20:11:00.462Z,3.08
2023-05-17T20:14:02.184Z,3.00
2023-05-17T20:17:04.470Z,3.47
2023-05-17T20:20:08.125Z,2.88
2023-05-17T20:23:13.397Z,3.38
2023-05-17T20:26:25.765Z,3.38
2023-05-17T20:29:27.480Z,2.90
2023-05-17T20:32:32.155Z,3.05
2023-05-17T20:35:35.614Z,3.03
2023-05-17T20:38:41.819Z,3.10
2023-05-17T20:41:43.454Z,2.97
2023-05-17T20:44:47.909Z,2.67
2023-05-17T20:47:52.122Z,2.95
2023-05-17T20:50:55.771Z,2.88
2023-05-17T20:53:57.527Z,2.90
2023-05-17T20:56:59.890Z,3.60
2023-05-17T21:00:02.305Z,2.90
2023-05-17T21:03:04.070Z,2.78
2023-05-17T21:06:08.569Z,2.70
2023-05-17T21:09:13.208Z,2.70
2023-05-17T21:12:16.853Z,3.08
2023-05-17T21:15:25.742Z,3.35
2023-05-17T21:18:34.717Z,3.00
2023-05-17T21:21:39.395Z,2.92
2023-05-17T21:27:59.640Z,2.67
2023-05-17T21:31:01.541Z,3.10
2023-05-17T21:34:06.062Z,2.85
2023-05-17T21:37:07.802Z,2.83
2023-05-17T21:40:11.834Z,3.00
2023-05-17T21:43:13.419Z,3.10
2023-05-17T21:46:16.773Z,3.25
2023-05-17T21:49:28.471Z,2.85
2023-05-17T21:52:30.511Z,2.90
2023-05-17T21:56:06.014Z,3.35
2023-05-17T21:59:16.654Z,3.13
2023-05-17T22:02:20.440Z,2.90
2023-05-17T22:05:22.480Z,3.30
2023-05-17T22:08:24.056Z,3.30
2023-05-17T22:11:27.400Z,2.97
2023-05-17T22:14:33.088Z,3.42
2023-05-17T22:18:03.391Z,3.40
2023-05-17T22:21:23.317Z,2.53
2023-05-17T22:24:24.876Z,2.90
2023-05-17T22:27:26.464Z,3.05
2023-05-17T22:30:28.687Z,3.03
2023-05-17T22:33:33.259Z,3.00
2023-05-17T22:36:36.501Z,3.45
2023-05-17T22:39:46.858Z,6.00
2023-05-17T22:42:50.536Z,5.60
2023-05-17T22:49:17.692Z,3.22
2023-05-17T22:52:19.781Z,2.95
2023-05-17T22:55:21.643Z,2.95
2023-05-17T22:58:23.770Z,3.30
2023-05-17T23:01:25.744Z,2.95
2023-05-17T23:04:32.887Z,3.10
2023-05-17T23:07:41.910Z,3.30
2023-05-17T23:10:52.393Z,3.30
2023-05-17T23:14:04.853Z,2.80
2023-05-17T23:17:06.429Z,3.33
2023-05-17T23:20:12.315Z,2.95
2023-05-17T23:23:22.993Z,3.00
2023-05-17T23:26:24.746Z,3.47
2023-05-17T23:29:26.353Z,3.38
2023-05-17T23:32:28.722Z,2.90
2023-05-17T23:35:32.612Z,3.28
2023-05-17T23:38:54.821Z,3.22
2023-05-17T23:42:06.876Z,3.13
2023-05-17T23:45:14.477Z,3.45
2023-05-17T23:48:25.572Z,3.17
2023-05-17T23:51:27.215Z,3.03
2023-05-17T23:54:31.884Z,3.35
2023-05-17T23:57:34.423Z,2.67
